createdAt,value
2023-05-04T00:02:14.701Z,2.83
2023-05-04T00:04:44.294Z,2.70
2023-05-04T00:07:12.694Z,3.30
2023-05-04T00:09:41.104Z,3.03
2023-05-04T00:12:09.278Z,3.10
2023-05-04T00:14:37.820Z,2.80
2023-05-04T00:17:07.906Z,3.20
2023-05-04T00:19:41.036Z,2.80
2023-05-04T00:22:10.675Z,3.00
2023-05-04T00:24:38.905Z,3.30
2023-05-04T00:27:07.008Z,2.93
2023-05-04T00:29:35.104Z,3.00
2023-05-04T00:32:03.197Z,2.97
2023-05-04T00:34:34.128Z,3.33
2023-05-04T00:37:02.223Z,2.83
2023-05-04T00:39:31.591Z,3.17
2023-05-04T00:41:59.669Z,3.30
2023-05-04T00:44:27.706Z,3.30
2023-05-04T00:46:55.999Z,3.33
2023-05-04T00:49:24.637Z,3.30
2023-05-04T00:51:52.773Z,3.20
2023-05-04T00:54:21.014Z,3.33
2023-05-04T00:56:50.593Z,3.03
2023-05-04T00:59:18.801Z,3.30
2023-05-04T01:01:46.915Z,2.90
2023-05-04T01:04:15.761Z,2.87
2023-05-04T01:06:47.379Z,3.03
2023-05-04T01:09:20.451Z,3.23
2023-05-04T01:11:55.653Z,3.07
2023-05-04T01:14:23.957Z,3.10
2023-05-04T01:16:56.162Z,3.50
2023-05-04T01:19:24.506Z,3.20
2023-05-04T01:21:53.964Z,3.10
2023-05-04T01:24:22.577Z,3.57
2023-05-04T01:26:55.083Z,3.23
2023-05-04T01:29:29.382Z,2.97
2023-05-04T01:31:57.664Z,3.70
2023-05-04T01:34:25.791Z,3.23
2023-05-04T01:36:56.082Z,3.43
2023-05-04T01:39:24.154Z,4.30
2023-05-04T01:41:52.363Z,3.57
2023-05-04T01:44:20.438Z,3.03
2023-05-04T01:46:48.418Z,3.17
2023-05-04T01:49:16.507Z,3.17
2023-05-04T01:51:45.797Z,3.33
2023-05-04T01:54:15.526Z,3.47
2023-05-04T01:56:43.791Z,3.37
2023-05-04T01:59:12.004Z,3.27
2023-05-04T02:01:41.784Z,3.47
2023-05-04T02:04:11.415Z,3.30
2023-05-04T02:06:40.532Z,3.60
2023-05-04T02:09:08.654Z,3.13
2023-05-04T02:11:38.224Z,3.60
2023-05-04T02:14:07.304Z,3.47
2023-05-04T02:16:35.422Z,3.93
2023-05-04T02:19:03.529Z,3.57
2023-05-04T02:21:31.553Z,4.23
2023-05-04T02:23:59.600Z,3.40
2023-05-04T02:26:27.803Z,3.70
2023-05-04T02:28:57.357Z,3.37
2023-05-04T02:31:25.556Z,3.30
2023-05-04T02:33:53.965Z,2.90
2023-05-04T02:36:22.105Z,3.20
2023-05-04T02:38:50.816Z,3.57
2023-05-04T02:41:18.868Z,3.10
2023-05-04T02:43:47.094Z,3.40
2023-05-04T02:46:16.751Z,3.00
2023-05-04T02:48:45.106Z,3.33
2023-05-04T02:51:13.154Z,3.57
2023-05-04T02:53:41.172Z,4.10
2023-05-04T02:56:10.368Z,3.30
2023-05-04T02:58:38.302Z,3.80
2023-05-04T03:01:06.360Z,4.00
2023-05-04T03:03:35.799Z,3.87
2023-05-04T03:06:03.830Z,3.77
2023-05-04T03:08:31.809Z,3.90
2023-05-04T03:10:59.722Z,3.80
2023-05-04T03:13:27.663Z,3.67
2023-05-04T03:15:55.630Z,4.10
2023-05-04T03:18:24.386Z,3.90
2023-05-04T03:20:53.708Z,3.60
2023-05-04T03:23:23.040Z,4.40
2023-05-04T03:25:51.386Z,4.20
2023-05-04T03:28:19.937Z,4.20
2023-05-04T03:30:48.488Z,3.63
2023-05-04T03:33:16.396Z,4.43
2023-05-04T03:35:44.832Z,4.40
2023-05-04T03:38:14.200Z,4.47
2023-05-04T03:40:44.641Z,4.47
2023-05-04T03:43:13.774Z,4.37
2023-05-04T03:45:41.864Z,4.10
2023-05-04T03:48:09.960Z,4.23
2023-05-04T03:50:37.998Z,4.67
2023-05-04T03:53:06.808Z,4.53
2023-05-04T03:55:36.640Z,4.83
2023-05-04T03:58:04.790Z,5.40
2023-05-04T04:00:33.568Z,5.03
2023-05-04T04:03:10.169Z,5.20
2023-05-04T04:05:39.320Z,5.23
2023-05-04T04:08:07.519Z,5.80
2023-05-04T04:10:37.083Z,5.30
2023-05-04T04:13:05.208Z,6.00
2023-05-04T04:15:33.432Z,5.73
2023-05-04T04:18:01.449Z,5.50
2023-05-04T04:20:29.523Z,5.90
2023-05-04T04:22:57.516Z,5.90
2023-05-04T04:25:25.501Z,5.67
2023-05-04T04:27:54.943Z,5.07
2023-05-04T04:30:22.954Z,4.73
2023-05-04T04:32:52.305Z,5.63
2023-05-04T04:35:20.417Z,5.60
2023-05-04T04:37:48.407Z,5.17
2023-05-04T04:40:16.599Z,5.10
2023-05-04T04:42:44.663Z,5.20
2023-05-04T04:45:15.476Z,5.63
2023-05-04T04:47:43.573Z,5.70
2023-05-04T04:50:12.088Z,5.90
2023-05-04T04:52:41.418Z,5.20
2023-05-04T04:55:10.284Z,5.27
2023-05-04T04:57:38.243Z,5.80
2023-05-04T05:00:09.445Z,5.43
2023-05-04T05:02:38.914Z,5.73
2023-05-04T05:05:07.642Z,5.70
2023-05-04T05:07:36.378Z,5.27
2023-05-04T05:10:05.182Z,5.30
2023-05-04T05:12:33.388Z,5.83
2023-05-04T05:15:01.378Z,5.23
2023-05-04T05:17:29.325Z,5.50
2023-05-04T05:19:58.750Z,5.60
2023-05-04T05:22:26.746Z,5.83
2023-05-04T05:24:54.716Z,5.47
2023-05-04T05:27:22.689Z,5.30
2023-05-04T05:29:50.610Z,4.73
2023-05-04T05:32:18.618Z,4.73
2023-05-04T05:34:46.718Z,4.70
2023-05-04T05:37:16.054Z,4.83
2023-05-04T05:39:44.029Z,4.40
2023-05-04T05:42:13.376Z,4.80
2023-05-04T05:44:42.867Z,4.70
2023-05-04T05:47:11.038Z,4.17
2023-05-04T05:49:39.081Z,4.70
2023-05-04T05:52:07.056Z,4.70
2023-05-04T05:54:36.695Z,4.80
2023-05-04T05:57:04.820Z,3.70
2023-05-04T05:59:32.752Z,3.93
2023-05-04T06:02:01.060Z,4.17
2023-05-04T06:04:29.099Z,4.63
2023-05-04T06:06:57.053Z,4.00
2023-05-04T06:09:25.067Z,4.30
2023-05-04T06:11:55.570Z,4.30
2023-05-04T06:14:23.866Z,4.37
2023-05-04T06:16:53.276Z,3.83
2023-05-04T06:19:21.252Z,4.10
2023-05-04T06:21:49.886Z,3.30
2023-05-04T06:24:17.911Z,3.83
2023-05-04T06:26:46.323Z,3.70
2023-05-04T06:29:15.672Z,4.03
2023-05-04T06:31:43.960Z,4.40
2023-05-04T06:34:13.237Z,3.43
2023-05-04T06:36:41.321Z,3.53
2023-05-04T06:39:09.357Z,3.53
2023-05-04T06:41:37.815Z,3.73
2023-05-04T06:44:06.316Z,4.13
2023-05-04T06:46:37.155Z,3.83
2023-05-04T06:49:05.284Z,3.80
2023-05-04T06:51:35.366Z,3.87
2023-05-04T06:54:03.359Z,3.20
2023-05-04T06:56:31.473Z,3.40
2023-05-04T06:58:59.592Z,3.40
2023-05-04T07:01:27.605Z,3.53
2023-05-04T07:03:58.331Z,3.03
2023-05-04T07:06:27.432Z,3.23
2023-05-04T07:08:55.529Z,3.03
2023-05-04T07:11:23.549Z,3.20
2023-05-04T07:13:51.556Z,3.07
2023-05-04T07:16:19.728Z,3.30
2023-05-04T07:18:47.834Z,2.80
2023-05-04T07:21:27.880Z,3.13
2023-05-04T07:23:56.721Z,2.87
2023-05-04T07:26:24.783Z,2.73
2023-05-04T07:28:52.805Z,3.10
2023-05-04T07:31:20.761Z,3.43
2023-05-04T07:33:48.808Z,2.80
2023-05-04T07:36:18.169Z,2.80
2023-05-04T07:38:46.264Z,2.77
2023-05-04T07:41:14.200Z,2.90
2023-05-04T07:43:42.229Z,3.10
2023-05-04T07:46:10.299Z,3.13
2023-05-04T07:48:38.401Z,3.07
2023-05-04T07:51:06.446Z,2.80
2023-05-04T07:53:35.866Z,2.50
2023-05-04T07:56:09.703Z,2.60
2023-05-04T07:58:37.812Z,3.30
2023-05-04T08:01:05.850Z,2.33
2023-05-04T08:03:33.937Z,2.80
2023-05-04T08:06:02.234Z,3.20
2023-05-04T08:08:30.403Z,2.47
2023-05-04T08:11:11.557Z,3.40
2023-05-04T08:13:40.563Z,2.73
2023-05-04T08:16:10.423Z,2.70
2023-05-04T08:18:39.044Z,3.30
2023-05-04T08:21:07.291Z,3.03
2023-05-04T08:23:35.610Z,3.00
2023-05-04T08:26:05.865Z,3.17
2023-05-04T08:28:40.443Z,3.20
2023-05-04T08:31:08.849Z,3.43
2023-05-04T08:33:36.873Z,3.00
2023-05-04T08:36:05.516Z,3.43
2023-05-04T08:38:33.758Z,3.73
2023-05-04T08:41:05.611Z,3.57
2023-05-04T08:43:35.781Z,3.87
2023-05-04T08:46:04.873Z,3.53
2023-05-04T08:48:34.510Z,3.93
2023-05-04T08:51:04.558Z,4.67
2023-05-04T08:53:33.482Z,3.70
2023-05-04T08:56:04.540Z,3.87
2023-05-04T08:58:37.918Z,4.43
2023-05-04T09:01:08.598Z,4.10
2023-05-04T09:03:36.973Z,4.53
2023-05-04T09:06:05.210Z,4.17
2023-05-04T09:08:33.330Z,3.73
2023-05-04T09:11:01.525Z,4.13
2023-05-04T09:13:29.720Z,3.67
2023-05-04T09:16:00.197Z,3.87
2023-05-04T09:18:37.700Z,4.60
2023-05-04T09:21:05.836Z,4.10
2023-05-04T09:23:34.487Z,4.37
2023-05-04T09:26:02.702Z,4.30
2023-05-04T09:28:39.138Z,4.10
2023-05-04T09:31:09.038Z,3.97
2023-05-04T09:33:37.438Z,4.77
2023-05-04T09:36:17.869Z,4.13
2023-05-04T09:38:46.190Z,4.07
2023-05-04T09:41:17.431Z,4.83
2023-05-04T09:43:47.145Z,4.00
2023-05-04T09:46:23.079Z,4.70
2023-05-04T09:48:53.364Z,4.83
2023-05-04T09:51:22.600Z,4.67
2023-05-04T09:53:51.812Z,5.07
2023-05-04T09:56:28.043Z,4.90
2023-05-04T09:59:00.259Z,4.00
2023-05-04T10:01:30.897Z,4.10
2023-05-04T10:03:59.552Z,4.17
2023-05-04T10:06:29.989Z,3.57
2023-05-04T10:09:00.223Z,3.73
2023-05-04T10:11:28.271Z,3.27
2023-05-04T10:13:57.269Z,4.10
2023-05-04T10:16:35.944Z,3.23
2023-05-04T10:19:37.657Z,3.60
2023-05-04T10:22:17.098Z,3.10
2023-05-04T10:25:02.536Z,3.20
2023-05-04T10:27:43.900Z,3.60
2023-05-04T10:30:13.267Z,2.90
2023-05-04T10:32:42.928Z,3.00
2023-05-04T10:35:12.061Z,3.37
2023-05-04T10:37:40.249Z,3.10
2023-05-04T10:40:09.027Z,3.10
2023-05-04T10:42:43.638Z,2.80
2023-05-04T10:45:13.187Z,3.23
2023-05-04T10:47:58.679Z,3.10
2023-05-04T10:50:26.955Z,3.17
2023-05-04T10:52:56.306Z,3.20
2023-05-04T10:55:26.033Z,3.20
2023-05-04T10:57:55.486Z,2.50
2023-05-04T11:00:25.478Z,3.00
2023-05-04T11:03:04.013Z,3.13
2023-05-04T11:05:41.729Z,2.47
2023-05-04T11:08:17.474Z,3.07
2023-05-04T11:10:46.075Z,2.53
2023-05-04T11:13:16.049Z,3.20
2023-05-04T11:15:48.204Z,3.00
2023-05-04T11:18:27.294Z,2.50
2023-05-04T11:20:56.111Z,2.70
2023-05-04T11:23:24.648Z,2.90
2023-05-04T11:25:52.726Z,2.90
2023-05-04T11:28:21.227Z,2.80
2023-05-04T11:30:49.329Z,3.07
2023-05-04T11:33:19.372Z,2.70
2023-05-04T11:35:54.395Z,2.70
2023-05-04T11:38:23.142Z,2.60
2023-05-04T11:40:51.436Z,2.77
2023-05-04T11:43:19.778Z,2.60
2023-05-04T11:45:49.805Z,2.37
2023-05-04T11:48:20.077Z,2.80
2023-05-04T11:50:49.186Z,2.87
2023-05-04T11:53:21.754Z,2.63
2023-05-04T11:55:52.499Z,2.70
2023-05-04T11:58:26.503Z,2.73
2023-05-04T12:00:59.398Z,2.47
2023-05-04T12:03:48.063Z,2.60
2023-05-04T12:06:20.229Z,2.73
2023-05-04T12:08:48.947Z,2.87
2023-05-04T12:11:21.705Z,2.83
2023-05-04T12:13:50.931Z,2.43
2023-05-04T12:16:20.062Z,2.63
2023-05-04T12:18:49.942Z,2.50
2023-05-04T12:21:19.677Z,2.60
2023-05-04T12:23:48.255Z,2.33
2023-05-04T12:26:19.624Z,2.40
2023-05-04T12:28:48.272Z,2.40
2023-05-04T12:31:16.734Z,2.40
2023-05-04T12:33:45.398Z,2.37
2023-05-04T12:36:14.891Z,2.47
2023-05-04T12:38:43.012Z,2.43
2023-05-04T12:41:11.840Z,2.23
2023-05-04T12:43:40.424Z,2.40
2023-05-04T12:46:08.654Z,2.20
2023-05-04T12:48:36.845Z,2.27
2023-05-04T12:51:05.437Z,2.73
2023-05-04T12:53:35.006Z,2.53
2023-05-04T12:56:03.805Z,2.53
2023-05-04T12:58:32.164Z,2.20
2023-05-04T13:01:00.474Z,2.30
2023-05-04T13:03:28.841Z,2.50
2023-05-04T13:05:58.518Z,2.20
2023-05-04T13:08:26.740Z,2.57
2023-05-04T13:10:56.431Z,2.33
2023-05-04T13:13:38.537Z,2.43
2023-05-04T13:16:07.091Z,2.27
2023-05-04T13:18:35.340Z,2.20
2023-05-04T13:21:03.686Z,2.20
2023-05-04T13:23:31.920Z,2.17
2023-05-04T13:26:01.338Z,2.20
2023-05-04T13:28:29.404Z,2.07
2023-05-04T13:30:57.802Z,1.90
2023-05-04T13:33:30.184Z,1.70
2023-05-04T13:35:59.065Z,2.20
2023-05-04T13:38:27.797Z,1.83
2023-05-04T13:40:56.147Z,2.20
2023-05-04T13:43:26.111Z,1.67
2023-05-04T13:45:54.218Z,1.93
2023-05-04T13:48:22.325Z,2.03
2023-05-04T13:50:50.601Z,1.73
2023-05-04T13:53:18.739Z,2.10
2023-05-04T13:55:46.929Z,1.93
2023-05-04T13:58:15.251Z,2.03
2023-05-04T14:00:44.970Z,2.37
2023-05-04T14:03:13.234Z,2.20
2023-05-04T14:05:41.751Z,2.13
2023-05-04T14:08:10.025Z,1.80
2023-05-04T14:10:38.767Z,2.37
2023-05-04T14:13:07.068Z,2.33
2023-05-04T14:15:36.603Z,2.17
2023-05-04T14:18:06.054Z,1.87
2023-05-04T14:20:34.181Z,1.93
2023-05-04T14:23:02.429Z,2.00
2023-05-04T14:25:30.745Z,1.80
2023-05-04T14:27:59.105Z,2.00
2023-05-04T14:30:27.625Z,2.13
2023-05-04T14:32:56.418Z,1.83
2023-05-04T14:35:26.122Z,2.07
2023-05-04T14:37:54.293Z,2.10
2023-05-04T14:40:22.733Z,2.20
2023-05-04T14:42:50.731Z,2.33
2023-05-04T14:45:19.529Z,2.03
2023-05-04T14:47:48.033Z,2.17
2023-05-04T14:50:16.189Z,2.33
2023-05-04T14:52:45.626Z,2.40
2023-05-04T14:55:14.383Z,2.50
2023-05-04T14:57:42.903Z,2.20
2023-05-04T15:00:12.349Z,2.50
2023-05-04T15:02:41.841Z,2.53
2023-05-04T15:05:12.581Z,2.10
2023-05-04T15:07:40.950Z,2.37
2023-05-04T15:10:11.589Z,2.10
2023-05-04T15:12:40.390Z,2.10
2023-05-04T15:15:09.426Z,2.20
2023-05-04T15:17:37.616Z,2.33
2023-05-04T15:20:06.710Z,2.33
2023-05-04T15:22:35.106Z,2.50
2023-05-04T15:25:04.203Z,2.23
2023-05-04T15:27:33.723Z,2.70
2023-05-04T15:30:01.952Z,2.40
2023-05-04T15:32:30.133Z,2.63
2023-05-04T15:35:05.199Z,2.30
2023-05-04T15:37:34.091Z,2.27
2023-05-04T15:40:02.815Z,2.10
2023-05-04T15:42:31.249Z,2.40
2023-05-04T15:45:00.736Z,2.20
2023-05-04T15:47:28.916Z,2.60
2023-05-04T15:49:57.021Z,2.20
2023-05-04T15:52:25.401Z,2.70
2023-05-04T15:54:53.454Z,2.20
2023-05-04T15:57:21.618Z,2.30
2023-05-04T15:59:49.969Z,2.33
2023-05-04T16:02:19.766Z,2.23
2023-05-04T16:04:47.916Z,2.10
2023-05-04T16:07:16.114Z,2.50
2023-05-04T16:09:44.163Z,2.60
2023-05-04T16:12:12.274Z,2.30
2023-05-04T16:14:40.935Z,2.67
2023-05-04T16:17:09.368Z,2.50
2023-05-04T16:19:38.773Z,2.17
2023-05-04T16:22:06.856Z,1.97
2023-05-04T16:24:36.113Z,2.20
2023-05-04T16:27:04.757Z,1.90
2023-05-04T16:29:32.844Z,2.03
2023-05-04T16:32:01.266Z,2.23
2023-05-04T16:34:29.249Z,2.67
2023-05-04T16:36:58.697Z,2.20
2023-05-04T16:39:31.661Z,2.40
2023-05-04T16:42:00.075Z,2.10
2023-05-04T16:44:28.443Z,2.30
2023-05-04T16:46:56.502Z,2.20
2023-05-04T16:49:24.658Z,2.00
2023-05-04T16:51:55.242Z,2.03
2023-05-04T16:54:24.744Z,2.43
2023-05-04T16:56:53.155Z,2.40
2023-05-04T16:59:21.260Z,2.30
2023-05-04T17:01:49.403Z,2.20
2023-05-04T17:04:17.894Z,2.20
2023-05-04T17:06:46.257Z,2.40
2023-05-04T17:09:14.442Z,2.30
2023-05-04T17:11:43.968Z,2.50
2023-05-04T17:14:12.223Z,2.10
2023-05-04T17:16:40.274Z,2.47
2023-05-04T17:19:10.894Z,2.60
2023-05-04T17:21:39.330Z,2.53
2023-05-04T17:24:07.479Z,2.40
2023-05-04T17:26:35.478Z,3.33
2023-05-04T17:29:05.178Z,2.40
2023-05-04T17:31:33.321Z,2.70
2023-05-04T17:34:01.381Z,2.47
2023-05-04T17:36:29.421Z,2.30
2023-05-04T17:38:57.398Z,2.10
2023-05-04T17:41:25.881Z,2.60
2023-05-04T17:43:56.075Z,2.17
2023-05-04T17:46:26.091Z,2.50
2023-05-04T17:48:54.590Z,2.07
2023-05-04T17:51:22.868Z,2.30
2023-05-04T17:53:50.943Z,2.03
2023-05-04T17:56:20.361Z,2.00
2023-05-04T17:58:48.387Z,2.03
2023-05-04T18:01:16.861Z,2.17
2023-05-04T18:03:46.687Z,2.20
2023-05-04T18:06:14.924Z,2.00
2023-05-04T18:08:43.089Z,2.20
2023-05-04T18:11:11.212Z,2.00
2023-05-04T18:13:39.303Z,2.20
2023-05-04T18:16:07.753Z,2.40
2023-05-04T18:18:35.831Z,2.27
2023-05-04T18:21:05.769Z,2.43
2023-05-04T18:23:33.846Z,2.27
2023-05-04T18:26:02.087Z,2.33
2023-05-04T18:28:30.519Z,2.17
2023-05-04T18:30:58.860Z,1.97
2023-05-04T18:33:27.218Z,2.17
2023-05-04T18:35:55.497Z,2.07
2023-05-04T18:38:26.293Z,2.53
2023-05-04T18:40:54.671Z,2.23
2023-05-04T18:43:22.834Z,2.53
2023-05-04T18:45:50.976Z,2.00
2023-05-04T18:48:19.238Z,2.20
2023-05-04T18:50:53.903Z,2.53
2023-05-04T18:53:22.123Z,2.80
2023-05-04T18:56:02.567Z,2.63
2023-05-04T18:58:30.874Z,2.30
2023-05-04T19:00:59.304Z,2.17
2023-05-04T19:03:27.540Z,2.53
2023-05-04T19:05:56.214Z,2.33
2023-05-04T19:08:24.384Z,2.10
2023-05-04T19:10:52.471Z,2.23
2023-05-04T19:13:21.904Z,2.47
2023-05-04T19:15:50.011Z,2.37
2023-05-04T19:18:18.836Z,2.10
2023-05-04T19:20:48.365Z,2.57
2023-05-04T19:23:16.411Z,2.30
2023-05-04T19:25:45.065Z,2.47
2023-05-04T19:28:13.392Z,2.23
2023-05-04T19:30:42.806Z,2.50
2023-05-04T19:33:11.033Z,2.10
2023-05-04T19:35:39.114Z,2.30
2023-05-04T19:38:07.458Z,2.27
2023-05-04T19:40:35.823Z,2.57
2023-05-04T19:43:03.968Z,2.37
2023-05-04T19:45:32.577Z,2.33
2023-05-04T19:48:02.055Z,2.20
2023-05-04T19:50:30.531Z,2.30
2023-05-04T19:52:58.620Z,2.20
2023-05-04T19:55:26.630Z,2.40
2023-05-04T19:57:54.816Z,2.30
2023-05-04T20:00:23.072Z,2.10
2023-05-04T20:02:51.360Z,2.63
2023-05-04T20:05:21.313Z,2.67
2023-05-04T20:07:49.528Z,2.30
2023-05-04T20:10:18.192Z,2.33
2023-05-04T20:12:46.731Z,2.40
2023-05-04T20:15:15.750Z,2.43
2023-05-04T20:17:43.899Z,2.23
2023-05-04T20:20:19.097Z,2.40
2023-05-04T20:22:49.151Z,2.80
2023-05-04T20:25:17.254Z,2.30
2023-05-04T20:27:46.307Z,2.20
2023-05-04T20:30:14.931Z,2.37
2023-05-04T20:32:44.160Z,2.67
2023-05-04T20:35:12.453Z,3.17
2023-05-04T20:37:40.463Z,2.40
2023-05-04T20:40:12.074Z,2.50
2023-05-04T20:42:40.714Z,2.50
2023-05-04T20:45:09.892Z,2.00
2023-05-04T20:47:37.999Z,2.43
2023-05-04T20:50:08.026Z,2.40
2023-05-04T20:52:38.372Z,2.70
2023-05-04T20:55:08.152Z,2.57
2023-05-04T20:57:39.617Z,3.10
2023-05-04T21:00:09.386Z,2.47
2023-05-04T21:02:37.896Z,2.40
2023-05-04T21:05:07.086Z,2.60
2023-05-04T21:07:35.527Z,2.50
2023-05-04T21:10:04.344Z,2.63
2023-05-04T21:12:32.515Z,2.43
2023-05-04T21:15:03.872Z,2.70
2023-05-04T21:17:32.040Z,2.30
2023-05-04T21:20:00.436Z,2.80
2023-05-04T21:22:28.844Z,2.40
2023-05-04T21:24:57.157Z,2.40
2023-05-04T21:27:25.341Z,2.60
2023-05-04T21:29:53.377Z,2.60
2023-05-04T21:32:23.015Z,2.50
2023-05-04T21:34:54.654Z,2.73
2023-05-04T21:37:23.391Z,2.23
2023-05-04T21:39:55.237Z,2.70
2023-05-04T21:42:23.528Z,2.30
2023-05-04T21:44:54.775Z,2.47
2023-05-04T21:47:24.568Z,2.80
2023-05-04T21:49:53.217Z,2.37
2023-05-04T21:52:24.138Z,2.33
2023-05-04T21:54:52.853Z,2.50
2023-05-04T21:57:21.008Z,2.00
2023-05-04T21:59:49.793Z,2.30
2023-05-04T22:02:18.170Z,2.30
2023-05-04T22:04:53.817Z,2.63
2023-05-04T22:07:21.880Z,2.13
2023-05-04T22:09:50.007Z,2.40
2023-05-04T22:12:18.396Z,2.70
2023-05-04T22:14:46.539Z,2.70
2023-05-04T22:17:14.573Z,2.80
2023-05-04T22:19:45.460Z,2.53
2023-05-04T22:22:14.942Z,2.80
2023-05-04T22:24:43.095Z,2.87
2023-05-04T22:27:11.204Z,2.60
2023-05-04T22:29:39.555Z,2.67
2023-05-04T22:32:07.723Z,3.07
2023-05-04T22:34:36.050Z,2.70
2023-05-04T22:37:04.984Z,2.50
2023-05-04T22:39:34.793Z,2.70
2023-05-04T22:42:02.960Z,2.40
2023-05-04T22:44:31.224Z,2.50
2023-05-04T22:46:59.641Z,2.70
2023-05-04T22:49:27.923Z,2.83
2023-05-04T22:51:56.233Z,2.77
2023-05-04T22:54:24.324Z,2.90
2023-05-04T22:56:59.080Z,3.20
2023-05-04T22:59:27.125Z,2.63
2023-05-04T23:01:55.271Z,2.53
2023-05-04T23:04:23.371Z,2.37
2023-05-04T23:06:51.444Z,2.60
2023-05-04T23:09:19.589Z,2.90
2023-05-04T23:11:47.929Z,2.53
2023-05-04T23:14:19.912Z,2.80
2023-05-04T23:16:48.015Z,2.77
2023-05-04T23:19:16.156Z,3.27
2023-05-04T23:21:44.704Z,2.40
2023-05-04T23:24:12.842Z,3.03
2023-05-04T23:26:41.054Z,2.30
2023-05-04T23:29:09.401Z,2.77
2023-05-04T23:31:40.845Z,3.00
2023-05-04T23:34:09.519Z,2.83
2023-05-04T23:36:37.617Z,2.67
2023-05-04T23:39:05.706Z,3.67
2023-05-04T23:41:33.862Z,4.43
2023-05-04T23:44:02.102Z,3.77
2023-05-04T23:46:30.276Z,3.10
2023-05-04T23:48:59.704Z,3.00
2023-05-04T23:51:28.573Z,3.23
2023-05-04T23:53:56.814Z,3.00
2023-05-04T23:56:24.918Z,3.50
2023-05-04T23:58:53.939Z,3.07
